createdAt,value
2023-02-19T00:02:02.818Z,8.03
2023-02-19T00:04:32.638Z,8.08
2023-02-19T00:07:01.107Z,8.04
2023-02-19T00:09:29.718Z,8.09
2023-02-19T00:11:58.228Z,8.02
2023-02-19T00:14:26.591Z,8.03
2023-02-19T00:16:54.953Z,8.04
2023-02-19T00:19:23.436Z,8.03
2023-02-19T00:21:54.203Z,8.02
2023-02-19T00:24:22.985Z,8.04
2023-02-19T00:26:51.316Z,8.00
2023-02-19T00:29:21.779Z,8.04
2023-02-19T00:31:51.209Z,7.94
2023-02-19T00:34:20.183Z,7.92
2023-02-19T00:36:48.752Z,7.92
2023-02-19T00:39:18.845Z,8.00
2023-02-19T00:41:47.646Z,7.91
2023-02-19T00:44:16.533Z,7.98
2023-02-19T00:46:46.908Z,8.00
2023-02-19T00:49:18.092Z,7.98
2023-02-19T00:51:47.433Z,7.93
2023-02-19T00:54:16.623Z,7.99
2023-02-19T00:56:46.606Z,7.97
2023-02-19T00:59:15.332Z,7.97
2023-02-19T01:01:44.665Z,8.02
2023-02-19T01:04:13.634Z,8.02
2023-02-19T01:06:42.216Z,8.02
2023-02-19T01:09:10.615Z,8.00
2023-02-19T01:11:38.960Z,7.99
2023-02-19T01:14:09.902Z,7.97
2023-02-19T01:16:38.349Z,7.93
2023-02-19T01:19:07.296Z,7.99
2023-02-19T01:21:35.649Z,7.99
2023-02-19T01:24:05.047Z,7.94
2023-02-19T01:26:34.425Z,7.92
2023-02-19T01:29:05.117Z,7.99
2023-02-19T01:31:35.259Z,7.98
2023-02-19T01:34:04.954Z,7.96
2023-02-19T01:36:35.082Z,7.99
2023-02-19T01:39:05.261Z,7.95
2023-02-19T01:41:37.041Z,7.91
2023-02-19T01:44:08.696Z,7.93
2023-02-19T01:46:40.000Z,7.93
2023-02-19T01:49:11.692Z,7.93
2023-02-19T01:51:44.611Z,7.99
2023-02-19T01:54:16.921Z,7.95
2023-02-19T01:56:49.307Z,7.93
2023-02-19T01:59:18.844Z,7.90
2023-02-19T02:01:49.218Z,7.90
2023-02-19T02:04:19.383Z,7.91
2023-02-19T02:06:53.099Z,7.95
2023-02-19T02:09:42.093Z,7.85
2023-02-19T02:12:12.722Z,7.87
2023-02-19T02:14:44.267Z,7.86
2023-02-19T02:17:24.781Z,7.91
2023-02-19T02:20:23.944Z,7.92
2023-02-19T02:23:00.332Z,7.86
2023-02-19T02:25:53.994Z,7.87
2023-02-19T02:28:44.964Z,7.79
2023-02-19T02:31:18.075Z,7.74
2023-02-19T02:33:54.519Z,7.71
2023-02-19T02:36:28.094Z,7.82
2023-02-19T02:38:58.454Z,7.75
2023-02-19T02:41:27.427Z,7.77
2023-02-19T02:43:56.047Z,7.80
2023-02-19T02:46:31.510Z,7.81
2023-02-19T02:49:04.948Z,7.79
2023-02-19T02:51:39.617Z,7.78
2023-02-19T02:54:32.983Z,7.76
2023-02-19T02:57:05.332Z,7.76
2023-02-19T02:59:40.546Z,7.72
2023-02-19T03:02:14.899Z,7.73
2023-02-19T03:05:09.182Z,7.72
2023-02-19T03:07:41.054Z,7.72
2023-02-19T03:10:14.861Z,7.71
2023-02-19T03:13:04.339Z,7.78
2023-02-19T03:15:55.723Z,7.75
2023-02-19T03:18:46.452Z,7.65
2023-02-19T03:21:20.504Z,7.71
2023-02-19T03:24:07.622Z,7.64
2023-02-19T03:26:39.911Z,7.69
2023-02-19T03:29:25.805Z,7.58
2023-02-19T03:32:05.328Z,7.64
2023-02-19T03:34:38.269Z,7.66
2023-02-19T03:37:11.927Z,7.67
2023-02-19T03:39:45.172Z,7.71
2023-02-19T03:42:24.300Z,7.60
2023-02-19T03:45:04.087Z,7.67
2023-02-19T03:47:40.934Z,7.54
2023-02-19T03:50:16.578Z,7.64
2023-02-19T03:52:53.069Z,7.62
2023-02-19T03:55:29.323Z,7.60
2023-02-19T03:58:05.427Z,7.62
2023-02-19T04:00:40.144Z,7.58
2023-02-19T04:03:17.018Z,7.56
2023-02-19T04:05:52.881Z,7.53
2023-02-19T04:08:25.299Z,7.54
2023-02-19T04:11:01.576Z,7.55
2023-02-19T04:13:39.654Z,7.56
2023-02-19T04:16:12.467Z,7.53
2023-02-19T04:18:45.091Z,7.53
2023-02-19T04:21:16.550Z,7.49
2023-02-19T04:23:46.591Z,7.57
2023-02-19T04:26:16.674Z,7.54
2023-02-19T04:28:45.214Z,7.54
2023-02-19T04:31:14.214Z,7.52
2023-02-19T04:33:42.899Z,7.49
2023-02-19T04:36:12.549Z,7.50
2023-02-19T04:38:42.261Z,7.49
2023-02-19T04:41:11.585Z,7.50
2023-02-19T04:43:40.080Z,7.36
2023-02-19T04:46:08.447Z,7.46
2023-02-19T04:48:36.813Z,7.40
2023-02-19T04:51:07.445Z,7.38
2023-02-19T04:53:35.998Z,7.37
2023-02-19T04:56:10.314Z,7.43
2023-02-19T04:58:39.899Z,7.46
2023-02-19T05:01:08.782Z,7.39
2023-02-19T05:03:37.884Z,7.40
2023-02-19T05:06:08.004Z,7.45
2023-02-19T05:08:36.471Z,7.42
2023-02-19T05:11:07.261Z,7.38
2023-02-19T05:13:37.640Z,7.26
2023-02-19T05:16:08.315Z,7.31
2023-02-19T05:18:36.765Z,7.32
2023-02-19T05:21:05.222Z,7.35
2023-02-19T05:23:33.810Z,7.30
2023-02-19T05:26:06.380Z,7.33
2023-02-19T05:28:34.850Z,7.33
2023-02-19T05:31:08.547Z,7.27
2023-02-19T05:33:37.961Z,7.23
2023-02-19T05:36:08.551Z,7.33
2023-02-19T05:38:37.727Z,7.27
2023-02-19T05:41:14.121Z,7.25
2023-02-19T05:43:44.281Z,7.31
2023-02-19T05:46:15.946Z,7.33
2023-02-19T05:48:44.639Z,7.32
2023-02-19T05:51:15.053Z,7.32
2023-02-19T05:53:44.603Z,7.23
2023-02-19T05:56:27.894Z,7.23
2023-02-19T05:58:59.357Z,7.23
2023-02-19T06:01:30.647Z,7.26
2023-02-19T06:03:59.336Z,7.32
2023-02-19T06:06:28.575Z,7.27
2023-02-19T06:08:56.994Z,7.26
2023-02-19T06:11:25.939Z,7.22
2023-02-19T06:13:54.272Z,7.25
2023-02-19T06:16:22.926Z,7.25
2023-02-19T06:18:55.191Z,7.28
2023-02-19T06:21:23.518Z,7.28
2023-02-19T06:23:54.061Z,7.22
2023-02-19T06:26:24.494Z,7.23
2023-02-19T06:28:54.289Z,7.27
2023-02-19T06:31:23.924Z,7.27
2023-02-19T06:33:54.982Z,7.34
2023-02-19T06:36:24.170Z,7.27
2023-02-19T06:38:52.816Z,7.30
2023-02-19T06:41:21.300Z,7.33
2023-02-19T06:43:49.687Z,7.27
2023-02-19T06:46:18.207Z,7.30
2023-02-19T06:48:46.928Z,7.31
2023-02-19T06:51:19.407Z,7.32
2023-02-19T06:53:47.756Z,7.27
2023-02-19T06:56:25.470Z,7.22
2023-02-19T06:58:54.458Z,7.27
2023-02-19T07:01:23.553Z,7.33
2023-02-19T07:03:52.503Z,7.26
2023-02-19T07:06:23.620Z,7.21
2023-02-19T07:08:53.016Z,7.31
2023-02-19T07:11:21.425Z,7.25
2023-02-19T07:13:55.934Z,7.33
2023-02-19T07:16:24.742Z,7.31
2023-02-19T07:18:53.509Z,7.32
2023-02-19T07:21:23.256Z,7.25
2023-02-19T07:23:51.654Z,7.32
2023-02-19T07:26:21.436Z,7.32
2023-02-19T07:28:51.674Z,7.35
2023-02-19T07:31:22.114Z,7.42
2023-02-19T07:33:51.266Z,7.47
2023-02-19T07:36:20.780Z,7.42
2023-02-19T07:38:57.289Z,7.44
2023-02-19T07:41:26.599Z,7.44
2023-02-19T07:43:58.258Z,7.47
2023-02-19T07:46:26.824Z,7.48
2023-02-19T07:49:01.065Z,7.41
2023-02-19T07:51:29.413Z,7.49
2023-02-19T07:53:59.161Z,7.55
2023-02-19T07:56:28.700Z,7.56
2023-02-19T07:58:57.113Z,7.54
2023-02-19T08:01:46.066Z,7.51
2023-02-19T08:04:15.178Z,7.50
2023-02-19T08:06:43.793Z,7.59
2023-02-19T08:09:17.999Z,7.64
2023-02-19T08:12:04.215Z,7.50
2023-02-19T08:14:32.686Z,7.65
2023-02-19T08:17:01.080Z,7.59
2023-02-19T08:19:29.476Z,7.53
2023-02-19T08:21:57.845Z,7.58
2023-02-19T08:24:27.565Z,7.73
2023-02-19T08:26:56.000Z,7.70
2023-02-19T08:29:24.545Z,7.69
2023-02-19T08:31:53.029Z,7.67
2023-02-19T08:34:21.399Z,7.75
2023-02-19T08:36:49.818Z,7.78
2023-02-19T08:39:20.124Z,7.80
2023-02-19T08:41:56.865Z,7.89
2023-02-19T08:44:25.589Z,7.96
2023-02-19T08:46:53.938Z,7.90
2023-02-19T08:49:22.334Z,7.92
2023-02-19T08:51:50.752Z,7.86
2023-02-19T08:54:22.155Z,8.00
2023-02-19T08:56:51.842Z,7.93
2023-02-19T08:59:20.627Z,7.94
2023-02-19T09:01:49.032Z,7.91
2023-02-19T09:04:19.661Z,7.86
2023-02-19T09:06:47.982Z,7.79
2023-02-19T09:09:16.624Z,7.82
2023-02-19T09:11:44.974Z,7.82
2023-02-19T09:14:14.735Z,7.72
2023-02-19T09:16:43.682Z,7.75
2023-02-19T09:19:12.065Z,7.79
2023-02-19T09:21:40.421Z,7.71
2023-02-19T09:24:09.876Z,7.61
2023-02-19T09:26:38.762Z,7.70
2023-02-19T09:29:07.266Z,7.59
2023-02-19T09:31:37.237Z,7.82
2023-02-19T09:34:06.775Z,7.92
2023-02-19T09:36:35.388Z,8.08
2023-02-19T09:39:06.554Z,7.99
2023-02-19T09:41:46.577Z,8.01
2023-02-19T09:44:24.963Z,8.01
2023-02-19T09:46:55.379Z,7.88
2023-02-19T09:49:33.388Z,7.84
2023-02-19T09:52:10.052Z,7.77
2023-02-19T09:54:40.843Z,7.87
2023-02-19T09:57:15.769Z,7.87
2023-02-19T09:59:47.826Z,7.92
2023-02-19T10:02:21.517Z,7.95
2023-02-19T10:04:52.079Z,7.91
2023-02-19T10:07:24.293Z,7.95
2023-02-19T10:09:56.606Z,8.12
2023-02-19T10:12:28.903Z,8.13
2023-02-19T10:15:02.966Z,8.17
2023-02-19T10:17:35.965Z,8.02
2023-02-19T10:20:15.680Z,7.94
2023-02-19T10:22:44.796Z,7.88
2023-02-19T10:25:15.672Z,7.94
2023-02-19T10:27:49.296Z,8.13
2023-02-19T10:30:22.142Z,8.47
2023-02-19T10:33:03.199Z,8.59
2023-02-19T10:36:33.618Z,8.53
2023-02-19T10:39:44.050Z,8.78
2023-02-19T10:42:18.998Z,9.04
2023-02-19T10:44:50.790Z,9.21
2023-02-19T10:47:22.696Z,9.00
2023-02-19T10:49:53.966Z,8.78
2023-02-19T10:52:26.522Z,8.92
2023-02-19T10:54:58.357Z,9.60
2023-02-19T10:57:33.221Z,9.65
2023-02-19T11:00:03.909Z,9.54
2023-02-19T11:02:32.940Z,9.61
2023-02-19T11:05:16.554Z,9.64
2023-02-19T11:07:47.514Z,9.63
2023-02-19T11:10:25.184Z,9.62
2023-02-19T11:12:55.891Z,9.62
2023-02-19T11:15:30.925Z,9.67
2023-02-19T11:18:09.350Z,9.72
2023-02-19T11:20:47.692Z,9.62
2023-02-19T11:23:18.761Z,9.38
2023-02-19T11:30:23.245Z,9.15
2023-02-19T11:32:51.642Z,9.10
2023-02-19T11:35:27.477Z,9.11
2023-02-19T11:37:59.967Z,9.11
2023-02-19T11:40:40.938Z,9.22
2023-02-19T11:43:28.190Z,9.25
2023-02-19T11:46:03.577Z,9.30
2023-02-19T11:48:56.155Z,9.31
2023-02-19T11:51:39.368Z,9.24
2023-02-19T11:54:25.349Z,9.03
2023-02-19T11:56:59.292Z,8.94
2023-02-19T11:59:34.712Z,8.96
2023-02-19T12:02:37.352Z,8.99
2023-02-19T12:05:20.677Z,9.15
2023-02-19T12:08:33.860Z,9.49
2023-02-19T12:11:20.544Z,10.11
2023-02-19T12:14:12.959Z,10.42
2023-02-19T12:16:48.874Z,10.34
2023-02-19T12:19:39.173Z,10.15
2023-02-19T12:22:23.437Z,10.07
2023-02-19T12:25:36.888Z,10.04
2023-02-19T12:28:49.103Z,9.88
2023-02-19T12:31:35.182Z,9.82
2023-02-19T12:34:19.204Z,9.82
2023-02-19T12:36:58.266Z,9.72
2023-02-19T12:39:38.472Z,9.67
2023-02-19T12:42:12.746Z,9.68
2023-02-19T12:44:48.502Z,9.61
2023-02-19T12:47:20.133Z,9.54
2023-02-19T12:49:58.317Z,9.41
2023-02-19T12:52:33.320Z,9.18
2023-02-19T12:55:15.013Z,8.93
2023-02-19T12:57:52.507Z,8.95
2023-02-19T13:00:36.452Z,9.04
2023-02-19T13:03:21.186Z,9.19
2023-02-19T13:05:54.844Z,9.09
2023-02-19T13:08:28.268Z,9.20
2023-02-19T13:11:00.870Z,9.41
2023-02-19T13:13:38.414Z,9.56
2023-02-19T13:16:15.055Z,9.61
2023-02-19T13:18:47.587Z,9.59
2023-02-19T13:21:36.701Z,9.47
2023-02-19T13:24:08.778Z,9.22
2023-02-19T13:27:08.776Z,9.18
2023-02-19T13:29:55.225Z,9.12
2023-02-19T13:32:48.744Z,9.10
2023-02-19T13:35:27.903Z,9.12
2023-02-19T13:38:01.159Z,9.14
2023-02-19T13:40:34.553Z,9.20
2023-02-19T13:43:27.462Z,9.31
2023-02-19T13:46:05.919Z,9.35
2023-02-19T13:48:37.836Z,9.68
2023-02-19T13:51:57.104Z,9.89
2023-02-19T13:54:28.315Z,9.94
2023-02-19T13:57:32.561Z,9.80
2023-02-19T14:00:01.263Z,9.58
2023-02-19T14:02:32.849Z,9.48
2023-02-19T14:05:13.386Z,9.44
2023-02-19T14:08:03.701Z,9.41
2023-02-19T14:11:05.073Z,9.22
2023-02-19T14:14:27.462Z,9.28
2023-02-19T14:17:23.758Z,9.26
2023-02-19T14:19:58.574Z,9.28
2023-02-19T14:22:52.585Z,9.16
2023-02-19T14:25:46.320Z,9.08
2023-02-19T14:28:20.159Z,8.98
2023-02-19T14:30:54.489Z,8.95
2023-02-19T14:33:28.576Z,8.90
2023-02-19T14:36:08.183Z,8.87
2023-02-19T14:38:43.027Z,8.94
2023-02-19T14:41:17.084Z,8.82
2023-02-19T14:43:49.111Z,8.84
2023-02-19T14:46:25.670Z,8.91
2023-02-19T14:48:54.389Z,8.79
2023-02-19T14:51:32.996Z,8.75
2023-02-19T14:54:13.577Z,8.73
2023-02-19T14:56:47.827Z,8.74
2023-02-19T14:59:38.216Z,8.71
2023-02-19T15:02:16.103Z,8.69
2023-02-19T15:04:44.626Z,8.61
2023-02-19T15:07:22.647Z,8.69
2023-02-19T15:09:56.949Z,8.75
2023-02-19T15:12:30.026Z,8.70
2023-02-19T15:15:13.197Z,8.57
2023-02-19T15:17:46.157Z,8.50
2023-02-19T15:20:19.651Z,8.35
2023-02-19T15:22:48.393Z,8.25
2023-02-19T15:25:31.692Z,7.94
2023-02-19T15:28:19.970Z,7.75
2023-02-19T15:31:06.191Z,7.49
2023-02-19T15:33:35.108Z,7.43
2023-02-19T15:36:07.026Z,7.30
2023-02-19T15:38:35.966Z,7.33
2023-02-19T15:41:11.594Z,7.29
2023-02-19T15:43:45.576Z,7.32
2023-02-19T15:46:19.577Z,7.27
2023-02-19T15:49:03.372Z,7.35
2023-02-19T15:51:37.745Z,7.43
2023-02-19T15:54:17.688Z,7.47
2023-02-19T15:56:58.109Z,7.37
2023-02-19T15:59:30.750Z,7.40
2023-02-19T16:02:00.621Z,7.46
2023-02-19T16:04:29.152Z,7.40
2023-02-19T16:07:07.598Z,7.37
2023-02-19T16:09:38.015Z,7.35
2023-02-19T16:12:21.581Z,7.28
2023-02-19T16:14:56.064Z,7.23
2023-02-19T16:17:28.227Z,7.25
2023-02-19T16:19:58.741Z,7.21
2023-02-19T16:22:30.308Z,7.24
2023-02-19T16:25:08.963Z,7.23
2023-02-19T16:27:41.083Z,7.18
2023-02-19T16:30:25.613Z,7.15
2023-02-19T16:33:22.955Z,7.06
2023-02-19T16:35:52.250Z,7.03
2023-02-19T16:38:28.020Z,7.05
2023-02-19T16:41:12.562Z,7.00
2023-02-19T16:43:43.249Z,6.90
2023-02-19T16:46:19.930Z,6.93
2023-02-19T16:48:48.515Z,6.90
2023-02-19T16:51:21.077Z,6.78
2023-02-19T16:53:49.456Z,6.70
2023-02-19T16:56:22.704Z,6.64
2023-02-19T16:58:52.509Z,6.53
2023-02-19T17:01:21.058Z,6.59
2023-02-19T17:03:49.688Z,6.60
2023-02-19T17:06:18.381Z,6.58
2023-02-19T17:08:46.808Z,6.60
2023-02-19T17:11:17.612Z,6.54
2023-02-19T17:13:47.462Z,6.51
2023-02-19T17:16:20.516Z,6.51
2023-02-19T17:18:49.210Z,6.52
2023-02-19T17:21:20.931Z,6.48
2023-02-19T17:23:49.707Z,6.56
2023-02-19T17:26:22.659Z,6.50
2023-02-19T17:28:51.536Z,6.47
2023-02-19T17:31:21.443Z,6.41
2023-02-19T17:33:50.033Z,6.34
2023-02-19T17:36:21.834Z,6.39
2023-02-19T17:38:50.486Z,6.42
2023-02-19T17:41:18.898Z,6.39
2023-02-19T17:43:47.433Z,6.44
2023-02-19T17:46:16.586Z,6.39
2023-02-19T17:48:46.383Z,6.36
2023-02-19T17:51:16.159Z,6.35
2023-02-19T17:53:46.438Z,6.32
2023-02-19T17:56:17.866Z,6.30
2023-02-19T17:58:46.424Z,6.33
2023-02-19T18:01:15.762Z,6.36
2023-02-19T18:03:44.882Z,6.36
2023-02-19T18:06:14.743Z,6.25
2023-02-19T18:08:48.066Z,6.26
2023-02-19T18:11:16.995Z,6.23
2023-02-19T18:13:45.433Z,6.22
2023-02-19T18:16:15.509Z,6.25
2023-02-19T18:18:44.414Z,6.23
2023-02-19T18:21:15.098Z,6.28
2023-02-19T18:23:43.571Z,6.22
2023-02-19T18:26:13.636Z,6.20
2023-02-19T18:28:42.095Z,6.28
2023-02-19T18:31:10.934Z,6.23
2023-02-19T18:34:29.400Z,6.18
2023-02-19T18:37:00.235Z,6.24
2023-02-19T18:39:28.655Z,6.27
2023-02-19T18:41:58.047Z,6.21
2023-02-19T18:44:26.478Z,6.15
2023-02-19T18:46:54.852Z,6.13
2023-02-19T18:49:24.545Z,6.10
2023-02-19T18:51:52.875Z,6.07
2023-02-19T18:54:24.854Z,6.03
2023-02-19T18:56:53.202Z,5.98
2023-02-19T18:59:21.953Z,5.95
2023-02-19T19:01:50.553Z,5.80
2023-02-19T19:04:19.393Z,5.65
2023-02-19T19:06:48.844Z,5.61
2023-02-19T19:09:17.301Z,5.65
2023-02-19T19:11:47.471Z,5.54
2023-02-19T19:14:15.956Z,5.51
2023-02-19T19:16:44.414Z,5.49
2023-02-19T19:19:14.846Z,5.42
2023-02-19T19:21:43.675Z,5.43
2023-02-19T19:24:13.189Z,5.37
2023-02-19T19:26:45.249Z,5.44
2023-02-19T19:29:17.152Z,5.43
2023-02-19T19:31:45.937Z,5.45
2023-02-19T19:34:15.077Z,5.47
2023-02-19T19:36:43.531Z,5.44
2023-02-19T19:39:11.955Z,5.33
2023-02-19T19:41:40.701Z,5.26
2023-02-19T19:44:10.120Z,5.26
2023-02-19T19:46:45.573Z,5.38
2023-02-19T19:49:17.503Z,5.28
2023-02-19T19:51:45.873Z,5.11
2023-02-19T19:54:14.418Z,5.22
2023-02-19T19:56:44.100Z,5.14
2023-02-19T19:59:12.678Z,5.07
2023-02-19T20:01:50.619Z,5.02
2023-02-19T20:04:20.263Z,5.02
2023-02-19T20:06:48.929Z,5.16
2023-02-19T20:09:18.208Z,5.20
2023-02-19T20:11:47.887Z,5.20
2023-02-19T20:14:17.052Z,5.10
2023-02-19T20:16:47.380Z,5.08
2023-02-19T20:19:18.700Z,5.06
2023-02-19T20:21:47.520Z,5.06
2023-02-19T20:24:16.588Z,4.99
2023-02-19T20:26:45.174Z,5.02
2023-02-19T20:29:13.601Z,5.04
2023-02-19T20:31:49.474Z,4.98
2023-02-19T20:34:19.709Z,5.04
2023-02-19T20:36:49.340Z,5.07
2023-02-19T20:39:19.119Z,5.08
2023-02-19T20:41:48.271Z,5.02
2023-02-19T20:44:16.854Z,5.00
2023-02-19T20:46:46.163Z,5.00
2023-02-19T20:49:15.237Z,5.01
2023-02-19T20:51:49.854Z,4.91
2023-02-19T20:54:19.207Z,4.90
2023-02-19T20:56:48.738Z,4.89
2023-02-19T20:59:18.650Z,4.82
2023-02-19T21:01:47.218Z,4.73
2023-02-19T21:04:15.861Z,4.69
2023-02-19T21:06:45.821Z,4.72
2023-02-19T21:09:14.543Z,4.70
2023-02-19T21:11:44.462Z,4.71
2023-02-19T21:14:13.307Z,4.74
2023-02-19T21:16:41.788Z,4.68
2023-02-19T21:19:10.391Z,4.58
2023-02-19T21:21:40.183Z,4.56
2023-02-19T21:24:10.728Z,4.51
2023-02-19T21:26:41.077Z,4.44
2023-02-19T21:29:11.565Z,4.25
2023-02-19T21:31:42.268Z,4.12
2023-02-19T21:34:12.781Z,4.02
2023-02-19T21:36:41.352Z,4.05
2023-02-19T21:39:13.748Z,4.02
2023-02-19T21:41:42.068Z,3.97
2023-02-19T21:44:10.385Z,4.00
2023-02-19T21:46:38.875Z,4.11
2023-02-19T21:49:07.794Z,4.21
2023-02-19T21:51:38.442Z,4.31
2023-02-19T21:54:08.647Z,4.35
2023-02-19T21:56:38.356Z,4.49
2023-02-19T21:59:06.738Z,4.40
2023-02-19T22:01:38.671Z,4.26
2023-02-19T22:04:08.192Z,4.32
2023-02-19T22:06:36.792Z,4.28
2023-02-19T22:09:05.321Z,4.18
2023-02-19T22:11:33.726Z,4.03
2023-02-19T22:14:03.794Z,3.98
2023-02-19T22:16:32.394Z,3.93
2023-02-19T22:19:01.392Z,4.01
2023-02-19T22:21:32.318Z,3.96
2023-02-19T22:24:02.618Z,3.96
2023-02-19T22:26:33.090Z,3.91
2023-02-19T22:29:06.786Z,3.89
2023-02-19T22:31:36.448Z,3.81
2023-02-19T22:34:05.452Z,3.81
2023-02-19T22:36:37.075Z,3.79
2023-02-19T22:39:06.703Z,3.61
2023-02-19T22:41:35.948Z,3.67
2023-02-19T22:44:06.183Z,3.64
2023-02-19T22:46:34.545Z,3.68
2023-02-19T22:49:05.375Z,3.61
2023-02-19T22:51:35.676Z,3.63
2023-02-19T22:54:04.287Z,3.63
2023-02-19T22:56:32.607Z,3.59
2023-02-19T22:59:00.986Z,3.62
2023-02-19T23:01:30.753Z,3.60
2023-02-19T23:04:01.155Z,3.55
2023-02-19T23:06:31.388Z,3.46
2023-02-19T23:09:07.358Z,3.41
2023-02-19T23:11:39.002Z,3.34
2023-02-19T23:14:08.436Z,3.28
2023-02-19T23:16:38.224Z,3.27
2023-02-19T23:19:11.196Z,3.34
2023-02-19T23:21:39.888Z,3.45
2023-02-19T23:24:09.148Z,3.47
2023-02-19T23:26:43.493Z,3.43
2023-02-19T23:29:12.163Z,3.51
2023-02-19T23:31:41.994Z,3.51
2023-02-19T23:34:10.594Z,3.56
2023-02-19T23:36:41.322Z,3.62
2023-02-19T23:39:11.225Z,3.52
2023-02-19T23:41:39.698Z,3.54
2023-02-19T23:44:08.042Z,3.50
2023-02-19T23:46:36.369Z,3.57
2023-02-19T23:49:06.447Z,3.57
2023-02-19T23:51:35.228Z,3.50
2023-02-19T23:54:03.837Z,3.53
2023-02-19T23:56:32.657Z,3.52
2023-02-19T23:59:01.391Z,3.43
